Time;durP1;ratioP1;P1;durP2;ratioP2;P2;SDS_P1;SDS_P2;PMS_P1;PMS_P2;Temp;Humidity;BMP_temperature;BMP_pressure;BME280_temperature;BME280_humidity;BME280_pressure;Samples;Min_cycle;Max_cycle;Signal;HPM_P1;HPM_P2
2022/04/02 00:01:49;;;;;;;21.70;15.82;;;;;;;;;;4952553;29;20092;-60
2022/04/02 00:04:16;;;;;;;22.08;15.25;;;;;;;;;;4952827;29;20023;-61
2022/04/02 00:06:42;;;;;;;22.63;15.50;;;;;;;;;;4952583;29;20024;-62
2022/04/02 00:09:08;;;;;;;20.40;14.68;;;;;;;;;;4952599;29;20035;-61
2022/04/02 00:11:34;;;;;;;20.00;15.20;;;;;;;;;;4952259;29;20031;-61
2022/04/02 00:14:00;;;;;;;22.15;16.73;;;;;;;;;;4952295;29;20087;-61
2022/04/02 00:16:26;;;;;;;23.17;16.70;;;;;;;;;;4952343;29;20035;-61
2022/04/02 00:18:52;;;;;;;22.98;16.95;;;;;;;;;;4952561;29;20075;-61
2022/04/02 00:21:19;;;;;;;22.73;16.85;;;;;;;;;;4952512;29;20043;-60
2022/04/02 00:23:46;;;;;;;25.40;17.92;;;;;;;;;;4952533;29;20023;-62
2022/04/02 00:26:16;;;;;;;25.08;17.63;;;;;;;;;;4952654;29;20482;-61
2022/04/02 00:28:43;;;;;;;26.65;18.38;;;;;;;;;;4952589;29;20030;-61
2022/04/02 00:31:10;;;;;;;25.33;18.33;;;;;;;;;;4952321;29;20035;-61
2022/04/02 00:33:37;;;;;;;26.10;18.50;;;;;;;;;;4952571;29;20392;-60
2022/04/02 00:36:03;;;;;;;25.95;18.63;;;;;;;;;;4952655;29;20032;-60
2022/04/02 00:38:30;;;;;;;26.08;18.45;;;;;;;;;;4952683;29;20027;-61
2022/04/02 00:40:56;;;;;;;23.92;17.67;;;;;;;;;;4952406;29;20134;-61
2022/04/02 00:43:29;;;;;;;24.45;18.67;;;;;;;;;;4952689;29;20428;-61
2022/04/02 00:45:57;;;;;;;25.73;19.17;;;;;;;;;;4952446;29;20090;-61
2022/04/02 00:48:24;;;;;;;28.13;19.38;;;;;;;;;;4952310;29;20035;-61
2022/04/02 00:50:55;;;;;;;29.23;19.35;;;;;;;;;;4952231;29;20035;-59
2022/04/02 00:53:21;;;;;;;27.70;19.35;;;;;;;;;;4952364;29;20027;-60
2022/04/02 00:55:48;;;;;;;27.55;19.65;;;;;;;;;;4952328;29;20090;-61
2022/04/02 00:58:14;;;;;;;28.52;20.08;;;;;;;;;;4952272;29;20031;-62
2022/04/02 01:00:40;;;;;;;27.17;20.63;;;;;;;;;;4951544;29;20050;-62
2022/04/02 01:03:07;;;;;;;29.45;21.10;;;;;;;;;;4952598;28;20031;-61
2022/04/02 01:05:35;;;;;;;28.05;19.85;;;;;;;;;;4955485;29;20040;-61
2022/04/02 01:08:04;;;;;;;28.35;20.35;;;;;;;;;;4955764;29;20106;-60
2022/04/02 01:10:30;;;;;;;30.65;21.45;;;;;;;;;;4955426;29;20045;-60
2022/04/02 01:12:56;;;;;;;28.55;21.60;;;;;;;;;;4955671;29;20031;-61
2022/04/02 01:15:22;;;;;;;31.77;22.45;;;;;;;;;;4955343;29;20035;-60
2022/04/02 01:17:48;;;;;;;24.00;17.77;;;;;;;;;;4955761;29;20039;-60
2022/04/02 01:20:15;;;;;;;28.02;19.42;;;;;;;;;;4955110;29;20042;-59
2022/04/02 01:22:41;;;;;;;24.92;18.60;;;;;;;;;;4955355;29;20023;-59
2022/04/02 01:25:08;;;;;;;26.90;18.77;;;;;;;;;;4955446;29;20130;-61
2022/04/02 01:27:34;;;;;;;28.27;20.05;;;;;;;;;;4955404;29;20030;-60
2022/04/02 01:30:00;;;;;;;27.75;19.80;;;;;;;;;;4955271;29;20067;-60
2022/04/02 01:32:27;;;;;;;28.42;20.75;;;;;;;;;;4955464;29;20039;-60
2022/04/02 01:34:53;;;;;;;28.35;21.05;;;;;;;;;;4954924;29;20106;-59
2022/04/02 01:37:19;;;;;;;26.98;19.70;;;;;;;;;;4955272;29;20031;-62
2022/04/02 01:39:45;;;;;;;29.73;21.55;;;;;;;;;;4955150;29;20090;-62
2022/04/02 01:42:12;;;;;;;28.23;21.00;;;;;;;;;;4955095;29;20102;-63
2022/04/02 01:44:38;;;;;;;27.75;20.15;;;;;;;;;;4955290;29;20102;-63
2022/04/02 01:47:04;;;;;;;29.17;20.27;;;;;;;;;;4955190;29;20019;-63
2022/04/02 01:49:30;;;;;;;29.25;21.42;;;;;;;;;;4954788;29;20641;-60
2022/04/02 01:51:56;;;;;;;29.70;19.40;;;;;;;;;;4954867;29;20078;-60
2022/04/02 01:54:22;;;;;;;27.75;18.42;;;;;;;;;;4955045;29;20468;-59
2022/04/02 01:56:48;;;;;;;27.17;19.70;;;;;;;;;;4954841;29;20106;-59
2022/04/02 01:59:15;;;;;;;26.27;18.63;;;;;;;;;;4954777;29;20066;-60
2022/04/02 02:01:42;;;;;;;26.35;18.70;;;;;;;;;;4955662;29;20059;-61
2022/04/02 02:04:08;;;;;;;26.30;18.75;;;;;;;;;;4956582;29;20016;-60
2022/04/02 02:06:38;;;;;;;24.75;18.38;;;;;;;;;;4955380;29;20506;-61
2022/04/02 02:09:05;;;;;;;27.00;19.33;;;;;;;;;;4954838;29;20106;-61
2022/04/02 02:11:31;;;;;;;26.63;18.95;;;;;;;;;;4954267;29;20035;-61
2022/04/02 02:13:58;;;;;;;27.98;19.63;;;;;;;;;;4954595;29;20019;-62
2022/04/02 02:16:24;;;;;;;29.73;20.17;;;;;;;;;;4953381;29;20118;-61
2022/04/02 02:18:50;;;;;;;28.60;20.02;;;;;;;;;;4954008;29;20118;-60
2022/04/02 02:21:17;;;;;;;29.92;20.80;;;;;;;;;;4954295;29;20408;-61
2022/04/02 02:23:43;;;;;;;31.67;20.52;;;;;;;;;;4953991;29;20031;-60
2022/04/02 02:26:09;;;;;;;28.38;19.60;;;;;;;;;;4953989;29;20027;-60
2022/04/02 02:28:35;;;;;;;28.88;19.90;;;;;;;;;;4953982;29;20035;-61
2022/04/02 02:31:01;;;;;;;30.20;20.13;;;;;;;;;;4953854;29;20039;-60
2022/04/02 02:36:12;;;;;;;27.83;19.42;;;;;;;;;;4953940;29;20070;-60
2022/04/02 02:38:38;;;;;;;28.98;19.95;;;;;;;;;;4954120;29;20143;-62
2022/04/02 02:41:04;;;;;;;25.80;19.10;;;;;;;;;;4953872;29;20110;-62
2022/04/02 02:43:30;;;;;;;28.17;20.25;;;;;;;;;;4954045;29;20589;-63
2022/04/02 02:45:56;;;;;;;30.70;20.80;;;;;;;;;;4953806;29;20400;-61
2022/04/02 02:48:22;;;;;;;30.17;21.42;;;;;;;;;;4953808;29;20759;-63
2022/04/02 02:50:48;;;;;;;29.33;20.35;;;;;;;;;;4953977;29;20031;-63
2022/04/02 02:53:14;;;;;;;29.55;20.92;;;;;;;;;;4953852;29;20031;-63
2022/04/02 02:55:40;;;;;;;30.13;20.88;;;;;;;;;;4953682;29;20039;-59
2022/04/02 02:58:08;;;;;;;29.75;21.30;;;;;;;;;;4953748;29;20450;-60
2022/04/02 03:00:34;;;;;;;30.52;20.90;;;;;;;;;;4953921;29;20085;-60
2022/04/02 03:03:00;;;;;;;30.80;21.88;;;;;;;;;;4953573;29;20071;-59
2022/04/02 03:05:26;;;;;;;30.05;20.35;;;;;;;;;;4953694;29;20027;-60
2022/04/02 03:07:52;;;;;;;27.75;19.80;;;;;;;;;;4953718;29;20098;-60
2022/04/02 03:10:25;;;;;;;30.55;20.67;;;;;;;;;;4953625;29;20027;-60
2022/04/02 03:12:52;;;;;;;28.55;19.90;;;;;;;;;;4953475;29;20027;-60
2022/04/02 03:15:21;;;;;;;31.83;21.45;;;;;;;;;;4953458;29;20117;-59
2022/04/02 03:17:48;;;;;;;33.60;21.52;;;;;;;;;;4953444;29;20094;-60
2022/04/02 03:20:15;;;;;;;34.08;22.52;;;;;;;;;;4953161;29;20139;-60
2022/04/02 03:22:41;;;;;;;32.28;21.77;;;;;;;;;;4953333;29;20103;-60
2022/04/02 03:25:12;;;;;;;34.30;22.20;;;;;;;;;;4953348;29;20031;-61
2022/04/02 03:27:39;;;;;;;31.25;22.40;;;;;;;;;;4953081;28;20114;-63
2022/04/02 03:30:06;;;;;;;33.83;22.70;;;;;;;;;;4953518;29;20046;-60
2022/04/02 03:32:32;;;;;;;33.20;22.42;;;;;;;;;;4953039;29;20035;-60
2022/04/02 03:34:59;;;;;;;30.60;21.80;;;;;;;;;;4953216;29;20023;-61
2022/04/02 03:37:25;;;;;;;33.72;21.73;;;;;;;;;;4953252;29;20046;-61
2022/04/02 03:39:52;;;;;;;32.92;22.98;;;;;;;;;;4953337;29;20043;-60
2022/04/02 03:42:18;;;;;;;32.35;21.65;;;;;;;;;;4952815;29;20692;-60
2022/04/02 03:44:45;;;;;;;32.50;22.27;;;;;;;;;;4952929;29;20023;-60
2022/04/02 03:47:11;;;;;;;33.45;22.60;;;;;;;;;;4952603;29;20063;-60
2022/04/02 03:49:37;;;;;;;31.95;22.65;;;;;;;;;;4952855;29;20035;-60
2022/04/02 03:52:04;;;;;;;34.35;22.55;;;;;;;;;;4952773;29;20027;-60
2022/04/02 03:54:30;;;;;;;31.67;22.10;;;;;;;;;;4952423;29;20031;-62
2022/04/02 03:56:56;;;;;;;35.17;22.70;;;;;;;;;;4952395;29;20421;-63
2022/04/02 03:59:22;;;;;;;34.72;23.67;;;;;;;;;;4952338;29;20038;-62
2022/04/02 04:01:48;;;;;;;36.45;23.48;;;;;;;;;;4952332;29;20107;-61
2022/04/02 04:04:14;;;;;;;36.35;23.70;;;;;;;;;;4952774;29;20107;-60
2022/04/02 04:06:41;;;;;;;35.92;23.73;;;;;;;;;;4952610;29;20031;-61
2022/04/02 04:09:07;;;;;;;37.30;25.08;;;;;;;;;;4952780;29;20118;-61
2022/04/02 04:11:33;;;;;;;38.63;25.48;;;;;;;;;;4952693;29;20106;-60
2022/04/02 04:13:59;;;;;;;39.25;25.40;;;;;;;;;;4952552;29;20031;-60
2022/04/02 04:16:25;;;;;;;38.33;26.35;;;;;;;;;;4952658;29;20031;-60
2022/04/02 04:18:52;;;;;;;36.72;24.67;;;;;;;;;;4953106;29;20107;-60
2022/04/02 04:21:18;;;;;;;33.75;22.50;;;;;;;;;;4952329;29;20095;-60
2022/04/02 04:23:44;;;;;;;35.55;23.38;;;;;;;;;;4952408;29;20038;-60
2022/04/02 04:26:11;;;;;;;35.00;22.40;;;;;;;;;;4952618;29;20085;-60
2022/04/02 04:28:38;;;;;;;36.40;23.77;;;;;;;;;;4952598;29;20055;-60
2022/04/02 04:31:07;;;;;;;37.70;23.75;;;;;;;;;;4952417;29;20110;-60
2022/04/02 04:33:35;;;;;;;52.08;31.15;;;;;;;;;;4952464;29;20082;-61
2022/04/02 04:36:01;;;;;;;45.55;27.63;;;;;;;;;;4952450;29;20041;-60
2022/04/02 04:38:27;;;;;;;42.13;26.05;;;;;;;;;;4953368;28;20080;-61
2022/04/02 04:40:53;;;;;;;118.95;53.22;;;;;;;;;;4956228;29;20070;-61
2022/04/02 04:43:19;;;;;;;94.50;42.85;;;;;;;;;;4956355;29;20071;-61
2022/04/02 04:45:45;;;;;;;71.88;38.67;;;;;;;;;;4956178;29;20530;-62
2022/04/02 04:48:11;;;;;;;60.15;33.83;;;;;;;;;;4956309;29;20510;-61
2022/04/02 04:50:37;;;;;;;73.43;40.97;;;;;;;;;;4956065;29;20050;-61
2022/04/02 04:53:03;;;;;;;54.47;31.90;;;;;;;;;;4956053;29;20056;-61
2022/04/02 04:55:30;;;;;;;61.75;36.80;;;;;;;;;;4956157;29;20023;-60
2022/04/02 04:57:56;;;;;;;52.40;32.72;;;;;;;;;;4955871;29;20031;-61
2022/04/02 05:00:23;;;;;;;62.17;36.78;;;;;;;;;;4955710;29;20043;-60
2022/04/02 05:02:49;;;;;;;53.78;34.45;;;;;;;;;;4955439;29;20106;-61
2022/04/02 05:05:15;;;;;;;65.38;39.63;;;;;;;;;;4955677;29;20062;-61
2022/04/02 05:07:41;;;;;;;62.53;37.88;;;;;;;;;;4955946;29;20035;-60
2022/04/02 05:10:08;;;;;;;59.20;37.83;;;;;;;;;;4955996;29;20847;-60
2022/04/02 05:12:34;;;;;;;82.60;45.25;;;;;;;;;;4955507;29;20042;-61
2022/04/02 05:15:01;;;;;;;71.63;37.78;;;;;;;;;;4955364;29;20035;-61
2022/04/02 05:17:27;;;;;;;77.25;40.38;;;;;;;;;;4955250;29;20023;-60
2022/04/02 05:19:53;;;;;;;64.85;37.05;;;;;;;;;;4955247;29;20031;-60
2022/04/02 05:22:19;;;;;;;57.15;34.15;;;;;;;;;;4955558;29;20027;-60
2022/04/02 05:24:45;;;;;;;55.47;34.75;;;;;;;;;;4955361;29;20023;-60
2022/04/02 05:27:11;;;;;;;60.88;36.10;;;;;;;;;;4955002;29;20555;-60
2022/04/02 05:29:37;;;;;;;59.33;34.47;;;;;;;;;;4955218;29;20034;-61
2022/04/02 05:32:04;;;;;;;53.15;31.70;;;;;;;;;;4955230;29;20059;-61
2022/04/02 05:34:30;;;;;;;53.35;33.08;;;;;;;;;;4955361;29;20081;-61
2022/04/02 05:36:56;;;;;;;87.32;44.60;;;;;;;;;;4955099;29;20484;-61
2022/04/02 05:39:23;;;;;;;60.90;35.55;;;;;;;;;;4955064;29;20035;-61
2022/04/02 05:41:49;;;;;;;48.55;30.83;;;;;;;;;;4955071;29;20039;-61
2022/04/02 05:44:15;;;;;;;46.30;28.85;;;;;;;;;;4955078;29;20050;-60
2022/04/02 05:46:41;;;;;;;48.42;29.80;;;;;;;;;;4955209;29;20476;-61
2022/04/02 05:49:08;;;;;;;48.95;30.95;;;;;;;;;;4954699;28;20114;-61
2022/04/02 05:51:34;;;;;;;49.10;29.98;;;;;;;;;;4954732;29;20479;-61
2022/04/02 05:54:00;;;;;;;50.42;31.38;;;;;;;;;;4954715;29;20041;-60
2022/04/02 05:56:27;;;;;;;48.10;30.25;;;;;;;;;;4954834;29;20031;-61
2022/04/02 05:58:53;;;;;;;50.80;31.48;;;;;;;;;;4954748;29;20031;-60
2022/04/02 06:01:19;;;;;;;50.60;32.35;;;;;;;;;;4954323;29;20058;-59
2022/04/02 06:03:47;;;;;;;50.17;31.90;;;;;;;;;;4954798;29;20036;-60
2022/04/02 06:06:13;;;;;;;47.30;30.60;;;;;;;;;;4954423;29;20031;-60
2022/04/02 06:08:39;;;;;;;47.00;31.17;;;;;;;;;;4954548;29;20027;-60
2022/04/02 06:11:08;;;;;;;52.70;34.30;;;;;;;;;;4954759;29;20110;-60
2022/04/02 06:13:34;;;;;;;47.70;30.55;;;;;;;;;;4954466;29;20026;-61
2022/04/02 06:16:00;;;;;;;51.63;33.53;;;;;;;;;;4954524;29;20031;-60
2022/04/02 06:18:26;;;;;;;48.78;31.33;;;;;;;;;;4954347;29;20134;-60
2022/04/02 06:20:52;;;;;;;49.30;31.40;;;;;;;;;;4954444;29;20035;-60
2022/04/02 06:23:19;;;;;;;54.65;33.53;;;;;;;;;;4954555;29;20023;-60
2022/04/02 06:25:45;;;;;;;47.78;32.33;;;;;;;;;;4954348;29;20078;-62
2022/04/02 06:28:11;;;;;;;59.58;36.72;;;;;;;;;;4954365;29;20027;-63
2022/04/02 06:30:37;;;;;;;54.70;32.65;;;;;;;;;;4954210;29;20039;-63
2022/04/02 06:33:05;;;;;;;45.95;30.60;;;;;;;;;;4954368;29;20038;-63
2022/04/02 06:35:32;;;;;;;46.17;30.65;;;;;;;;;;4953935;29;20048;-62
2022/04/02 06:37:58;;;;;;;52.28;34.22;;;;;;;;;;4953765;29;20027;-65
2022/04/02 06:40:25;;;;;;;45.92;28.98;;;;;;;;;;4945909;29;20550;-62
2022/04/02 06:42:51;;;;;;;48.03;31.13;;;;;;;;;;4953640;29;20039;-63
2022/04/02 06:45:18;;;;;;;49.13;31.67;;;;;;;;;;4953149;29;20058;-60
2022/04/02 06:47:44;;;;;;;46.65;30.30;;;;;;;;;;4951687;29;20027;-63
2022/04/02 06:50:12;;;;;;;50.30;31.65;;;;;;;;;;4946389;29;20039;-61
2022/04/02 06:52:39;;;;;;;51.88;32.40;;;;;;;;;;4950220;29;20031;-61
2022/04/02 06:55:08;;;;;;;53.97;33.08;;;;;;;;;;4952748;29;20824;-63
2022/04/02 06:57:42;;;;;;;52.38;32.67;;;;;;;;;;4952924;29;20027;-63
2022/04/02 07:00:09;;;;;;;52.10;32.80;;;;;;;;;;4952749;29;20043;-61
2022/04/02 07:02:35;;;;;;;53.60;33.45;;;;;;;;;;4952077;28;20090;-63
2022/04/02 07:05:01;;;;;;;52.53;32.92;;;;;;;;;;4952183;29;20046;-64
2022/04/02 07:07:27;;;;;;;49.60;31.77;;;;;;;;;;4951623;29;20028;-68
2022/04/02 07:09:53;;;;;;;52.97;31.02;;;;;;;;;;4951997;29;20039;-65
2022/04/02 07:12:19;;;;;;;52.47;33.60;;;;;;;;;;4951753;29;20031;-65
2022/04/02 07:14:45;;;;;;;49.58;31.75;;;;;;;;;;4951871;29;20031;-64
2022/04/02 07:17:12;;;;;;;53.55;32.90;;;;;;;;;;4951808;29;20074;-65
2022/04/02 07:19:42;;;;;;;54.45;31.98;;;;;;;;;;4952179;29;20082;-63
2022/04/02 07:22:09;;;;;;;49.10;31.30;;;;;;;;;;4952608;29;20042;-64
2022/04/02 07:24:35;;;;;;;56.80;34.88;;;;;;;;;;4952140;29;20047;-64
2022/04/02 07:27:02;;;;;;;51.95;30.77;;;;;;;;;;4951683;29;20038;-62
2022/04/02 07:29:29;;;;;;;59.92;35.08;;;;;;;;;;4952968;29;20027;-62
2022/04/02 07:31:55;;;;;;;54.50;33.15;;;;;;;;;;4952424;29;20042;-64
2022/04/02 07:34:21;;;;;;;66.55;37.70;;;;;;;;;;4952808;29;20039;-66
2022/04/02 07:37:06;;;;;;;73.38;40.33;;;;;;;;;;4952235;29;20031;-64
2022/04/02 07:39:50;;;;;;;58.40;34.72;;;;;;;;;;4951768;29;20027;-67
2022/04/02 07:42:26;;;;;;;61.70;33.95;;;;;;;;;;4951256;29;20035;-65
2022/04/02 07:45:03;;;;;;;65.28;37.50;;;;;;;;;;4952298;29;20031;-69
2022/04/02 07:47:33;;;;;;;66.22;37.17;;;;;;;;;;4952430;29;20027;-67
2022/04/02 07:50:07;;;;;;;71.07;38.97;;;;;;;;;;4952212;29;20519;-71
2022/04/02 07:52:36;;;;;;;78.53;45.88;;;;;;;;;;4952011;29;20035;-64
2022/04/02 07:55:04;;;;;;;78.28;46.67;;;;;;;;;;4952069;29;20094;-66
2022/04/02 07:57:37;;;;;;;78.13;44.70;;;;;;;;;;4952150;29;20086;-65
2022/04/02 08:00:10;;;;;;;71.63;43.05;;;;;;;;;;4951756;29;20073;-65
2022/04/02 08:02:39;;;;;;;;;;;;;;;;;;4952474;29;20071;-65
2022/04/02 08:05:10;;;;;;;70.03;41.13;;;;;;;;;;4952103;29;19964;-65
2022/04/02 08:07:38;;;;;;;63.30;38.15;;;;;;;;;;4951567;29;20031;-64
2022/04/02 08:10:06;;;;;;;96.55;46.85;;;;;;;;;;4951576;29;20082;-66
2022/04/02 08:12:34;;;;;;;67.60;38.60;;;;;;;;;;4952915;28;20476;-66
2022/04/02 08:15:01;;;;;;;62.20;37.00;;;;;;;;;;4955423;29;20031;-66
2022/04/02 08:17:27;;;;;;;63.00;37.83;;;;;;;;;;4955715;29;20042;-66
2022/04/02 08:20:00;;;;;;;66.45;38.55;;;;;;;;;;4954489;29;20038;-66
2022/04/02 08:22:27;;;;;;;66.28;36.85;;;;;;;;;;4955516;29;20035;-64
2022/04/02 08:24:53;;;;;;;61.97;38.72;;;;;;;;;;4955536;29;20031;-66
2022/04/02 08:27:19;;;;;;;70.63;39.63;;;;;;;;;;4955691;29;20045;-65
2022/04/02 08:30:00;;;;;;;63.80;37.97;;;;;;;;;;4955663;29;20609;-67
2022/04/02 08:32:38;;;;;;;58.45;35.42;;;;;;;;;;4954787;29;20511;-63
2022/04/02 08:35:07;;;;;;;76.03;42.90;;;;;;;;;;4955594;29;20031;-63
2022/04/02 08:40:55;;;;;;;63.15;37.80;;;;;;;;;;4954974;29;20412;-66
2022/04/02 08:43:30;;;;;;;72.28;39.95;;;;;;;;;;4955122;29;20038;-63
2022/04/02 08:46:14;;;;;;;63.20;37.00;;;;;;;;;;4955125;29;20054;-65
2022/04/02 08:49:13;;;;;;;72.65;41.03;;;;;;;;;;4955393;29;20043;-64
2022/04/02 08:51:57;;;;;;;72.50;40.38;;;;;;;;;;4876961;29;20041;-61
2022/04/02 08:54:25;;;;;;;77.68;40.95;;;;;;;;;;4876681;29;20096;-63
2022/04/02 08:57:10;;;;;;;72.57;43.10;;;;;;;;;;4877286;29;20120;-61
2022/04/02 08:59:43;;;;;;;82.13;45.07;;;;;;;;;;4876795;29;20033;-64
2022/04/02 09:02:27;;;;;;;85.75;44.60;;;;;;;;;;4876670;29;20528;-63
2022/04/02 09:05:12;;;;;;;90.97;47.20;;;;;;;;;;4886377;29;20043;-62
2022/04/02 09:07:46;;;;;;;76.80;38.88;;;;;;;;;;4895156;29;20044;-62
2022/04/02 09:10:34;;;;;;;86.60;46.03;;;;;;;;;;4895269;29;20075;-62
2022/04/02 09:13:15;;;;;;;86.25;48.35;;;;;;;;;;4876926;29;20060;-62
2022/04/02 09:16:13;;;;;;;77.90;44.30;;;;;;;;;;4876103;29;20045;-61
2022/04/02 09:19:06;;;;;;;79.00;45.72;;;;;;;;;;4839827;29;20042;-62
2022/04/02 09:21:44;;;;;;;77.35;45.88;;;;;;;;;;4838191;29;20077;-63
2022/04/02 09:24:45;;;;;;;88.32;47.78;;;;;;;;;;4838768;29;20139;-63
2022/04/02 09:27:45;;;;;;;95.47;51.00;;;;;;;;;;4801104;29;20051;-63
2022/04/02 09:30:23;;;;;;;91.22;49.80;;;;;;;;;;4820511;29;20508;-64
2022/04/02 09:33:10;;;;;;;90.00;50.47;;;;;;;;;;4820980;29;20134;-62
2022/04/02 09:36:06;;;;;;;82.50;45.35;;;;;;;;;;4820859;29;20050;-62
2022/04/02 09:38:35;;;;;;;87.95;46.97;;;;;;;;;;4821104;29;20053;-63
2022/04/02 09:41:24;;;;;;;123.43;71.00;;;;;;;;;;4820605;29;20046;-62
2022/04/02 09:44:27;;;;;;;91.75;50.85;;;;;;;;;;4820281;29;20115;-62
2022/04/02 09:46:56;;;;;;;71.80;40.97;;;;;;;;;;4820508;29;20112;-63
2022/04/02 09:52:26;;;;;;;72.32;41.90;;;;;;;;;;4838536;29;20495;-62
2022/04/02 09:55:12;;;;;;;72.68;41.95;;;;;;;;;;4846658;29;20069;-63
2022/04/02 09:57:57;;;;;;;69.85;41.10;;;;;;;;;;4875481;29;20073;-62
2022/04/02 10:00:29;;;;;;;71.82;41.28;;;;;;;;;;4875589;29;20053;-62
2022/04/02 10:02:59;;;;;;;;;;;;;;;;;;4918581;29;20062;-62
2022/04/02 10:05:46;;;;;;;76.35;40.97;;;;;;;;;;4953345;29;19949;-62
2022/04/02 10:08:14;;;;;;;70.95;40.28;;;;;;;;;;4893537;29;20041;-62
2022/04/02 10:10:42;;;;;;;76.55;42.95;;;;;;;;;;4877995;29;20469;-63
2022/04/02 10:13:08;;;;;;;121.97;54.45;;;;;;;;;;4893969;29;20037;-63
2022/04/02 10:15:37;;;;;;;82.22;46.42;;;;;;;;;;4894560;29;20178;-70
2022/04/02 10:18:03;;;;;;;83.20;43.97;;;;;;;;;;4893745;29;20087;-62
2022/04/02 10:20:30;;;;;;;95.45;47.67;;;;;;;;;;4893789;29;20055;-63
2022/04/02 10:23:02;;;;;;;99.05;47.33;;;;;;;;;;4893813;29;20396;-63
2022/04/02 10:25:29;;;;;;;77.60;41.20;;;;;;;;;;4894561;29;20044;-62
2022/04/02 10:27:55;;;;;;;71.80;41.65;;;;;;;;;;4894100;29;20033;-62
2022/04/02 10:30:25;;;;;;;69.63;38.85;;;;;;;;;;4893673;29;20379;-63
2022/04/02 10:32:57;;;;;;;69.82;39.10;;;;;;;;;;4894089;29;20608;-66
2022/04/02 10:35:25;;;;;;;81.93;44.10;;;;;;;;;;4886334;29;20454;-62
2022/04/02 10:38:09;;;;;;;72.30;38.78;;;;;;;;;;4893060;29;20040;-63
2022/04/02 10:40:42;;;;;;;77.53;39.55;;;;;;;;;;4894141;29;20063;-65
2022/04/02 10:43:12;;;;;;;71.45;38.97;;;;;;;;;;4893844;29;20024;-61
2022/04/02 10:45:42;;;;;;;73.80;41.55;;;;;;;;;;4926151;29;20171;-61
2022/04/02 10:48:12;;;;;;;70.88;40.45;;;;;;;;;;4952771;29;20038;-64
2022/04/02 10:50:42;;;;;;;72.63;42.30;;;;;;;;;;4952911;29;20499;-61
2022/04/02 10:53:12;;;;;;;79.63;43.72;;;;;;;;;;4952386;29;20063;-62
2022/04/02 10:55:45;;;;;;;88.28;46.03;;;;;;;;;;4952717;29;20027;-62
2022/04/02 10:58:11;;;;;;;82.05;47.35;;;;;;;;;;4952458;29;20487;-64
2022/04/02 11:00:39;;;;;;;83.35;46.85;;;;;;;;;;4952431;29;20039;-61
2022/04/02 11:03:06;;;;;;;80.38;46.13;;;;;;;;;;4913140;29;1169751;-61
2022/04/02 11:05:36;;;;;;;80.57;46.42;;;;;;;;;;4953461;29;20039;-65
2022/04/02 11:08:06;;;;;;;70.68;40.25;;;;;;;;;;4953096;29;20054;-63
2022/04/02 11:10:35;;;;;;;77.57;44.40;;;;;;;;;;4953534;29;20098;-62
2022/04/02 11:13:04;;;;;;;79.03;46.67;;;;;;;;;;4950874;29;20070;-65
2022/04/02 11:15:31;;;;;;;74.60;42.88;;;;;;;;;;4946851;29;20099;-62
2022/04/02 11:17:59;;;;;;;72.15;43.55;;;;;;;;;;4934024;29;20657;-61
2022/04/02 11:20:26;;;;;;;66.90;40.60;;;;;;;;;;4949444;28;20031;-65
2022/04/02 11:22:54;;;;;;;69.25;41.63;;;;;;;;;;4970673;28;20049;-63
2022/04/02 11:25:46;;;;;;;73.18;44.30;;;;;;;;;;4963528;28;20016;-63
2022/04/02 11:28:13;;;;;;;67.28;40.75;;;;;;;;;;4945551;28;20050;-63
2022/04/02 11:30:40;;;;;;;60.97;38.03;;;;;;;;;;4946369;29;20023;-62
2022/04/02 11:33:17;;;;;;;64.55;38.78;;;;;;;;;;4951187;29;20035;-63
2022/04/02 11:35:48;;;;;;;57.92;35.53;;;;;;;;;;4946119;29;20023;-63
2022/04/02 11:38:20;;;;;;;60.03;37.05;;;;;;;;;;4945979;29;20030;-62
2022/04/02 11:41:01;;;;;;;58.67;36.85;;;;;;;;;;4944813;29;20114;-62
2022/04/02 11:43:32;;;;;;;60.25;37.30;;;;;;;;;;4944265;29;20027;-64
2022/04/02 11:45:58;;;;;;;55.38;34.72;;;;;;;;;;4946839;29;20693;-64
2022/04/02 11:48:27;;;;;;;57.72;36.42;;;;;;;;;;4946573;28;20024;-63
2022/04/02 11:50:54;;;;;;;60.33;37.88;;;;;;;;;;4944786;29;20038;-61
2022/04/02 11:53:31;;;;;;;60.60;38.25;;;;;;;;;;4943695;29;20373;-61
2022/04/02 11:55:59;;;;;;;56.03;36.92;;;;;;;;;;4949817;29;20023;-62
2022/04/02 11:58:26;;;;;;;58.78;37.90;;;;;;;;;;4949182;29;20432;-61
2022/04/02 12:00:57;;;;;;;60.05;38.22;;;;;;;;;;4951295;29;20063;-62
2022/04/02 12:03:25;;;;;;;72.85;44.05;;;;;;;;;;4926432;29;20497;-59
2022/04/02 12:05:51;;;;;;;71.47;44.55;;;;;;;;;;4951542;29;20078;-61
2022/04/02 12:08:27;;;;;;;72.55;43.20;;;;;;;;;;4952746;29;20038;-62
2022/04/02 12:10:53;;;;;;;71.40;44.53;;;;;;;;;;4961594;28;20032;-61
2022/04/02 12:13:21;;;;;;;71.65;43.60;;;;;;;;;;4944261;29;20039;-62
2022/04/02 12:16:13;;;;;;;68.57;42.45;;;;;;;;;;4952185;29;20065;-61
2022/04/02 12:18:58;;;;;;;68.68;42.60;;;;;;;;;;4942429;29;20043;-60
2022/04/02 12:21:31;;;;;;;61.15;40.38;;;;;;;;;;4948260;29;20150;-61
2022/04/02 12:24:00;;;;;;;63.25;40.60;;;;;;;;;;4947307;29;20020;-60
2022/04/02 12:26:27;;;;;;;63.78;40.88;;;;;;;;;;4948687;29;20471;-60
2022/04/02 12:28:57;;;;;;;65.22;40.38;;;;;;;;;;4948498;29;20031;-61
2022/04/02 12:31:23;;;;;;;61.65;38.88;;;;;;;;;;4939468;29;20038;-60
2022/04/02 12:33:53;;;;;;;63.83;40.75;;;;;;;;;;4948175;29;20030;-60
2022/04/02 12:36:28;;;;;;;70.90;42.53;;;;;;;;;;4946025;29;20134;-62
2022/04/02 12:38:59;;;;;;;76.03;46.53;;;;;;;;;;4951463;29;20023;-62
2022/04/02 12:41:28;;;;;;;73.03;46.63;;;;;;;;;;4944152;29;20511;-62
2022/04/02 12:43:58;;;;;;;72.70;44.15;;;;;;;;;;4949185;29;20030;-61
2022/04/02 12:46:26;;;;;;;68.43;43.33;;;;;;;;;;4951013;29;20038;-62
2022/04/02 12:48:53;;;;;;;61.00;40.20;;;;;;;;;;4949422;29;20035;-60
2022/04/02 12:51:20;;;;;;;59.00;37.90;;;;;;;;;;4921303;29;20039;-61
2022/04/02 12:53:49;;;;;;;57.03;36.40;;;;;;;;;;4951864;29;20122;-62
2022/04/02 12:56:25;;;;;;;34.78;22.13;;;;;;;;;;4952387;29;20059;-61
2022/04/02 12:58:52;;;;;;;19.52;10.27;;;;;;;;;;4951806;28;20028;-60
2022/04/02 13:01:22;;;;;;;14.38;8.05;;;;;;;;;;4963519;29;20114;-61
2022/04/02 13:03:59;;;;;;;15.52;9.20;;;;;;;;;;4957676;29;20062;-62
2022/04/02 13:06:26;;;;;;;15.63;8.60;;;;;;;;;;4935024;29;20499;-61
2022/04/02 13:09:01;;;;;;;13.63;8.52;;;;;;;;;;4952850;29;20027;-60
2022/04/02 13:11:48;;;;;;;12.57;6.20;;;;;;;;;;4955044;29;20027;-61
2022/04/02 13:14:14;;;;;;;8.63;5.18;;;;;;;;;;4927976;29;20041;-62
2022/04/02 13:16:41;;;;;;;7.60;4.35;;;;;;;;;;4954239;29;20037;-61
2022/04/02 13:22:01;;;;;;;9.70;5.22;;;;;;;;;;4954998;29;20090;-60
2022/04/02 13:24:28;;;;;;;7.38;4.68;;;;;;;;;;4954206;29;20023;-62
2022/04/02 13:27:00;;;;;;;8.30;5.18;;;;;;;;;;4954627;29;20033;-61
2022/04/02 13:29:26;;;;;;;10.43;5.82;;;;;;;;;;4954579;28;20043;-61
2022/04/02 13:32:12;;;;;;;11.80;6.47;;;;;;;;;;4954703;29;20035;-63
2022/04/02 13:34:44;;;;;;;11.52;5.45;;;;;;;;;;4955040;29;20031;-63
2022/04/02 13:37:20;;;;;;;10.27;5.75;;;;;;;;;;4953042;29;20043;-61
2022/04/02 13:39:48;;;;;;;9.55;5.70;;;;;;;;;;4948336;29;20027;-62
2022/04/02 13:42:18;;;;;;;10.93;6.75;;;;;;;;;;4944243;29;20046;-61
2022/04/02 13:44:44;;;;;;;11.93;7.30;;;;;;;;;;4950770;29;20034;-61
2022/04/02 13:47:11;;;;;;;13.50;7.80;;;;;;;;;;4954923;29;20035;-62
2022/04/02 13:49:47;;;;;;;13.38;9.00;;;;;;;;;;4954539;29;20027;-62
2022/04/02 13:52:20;;;;;;;12.77;7.28;;;;;;;;;;4954139;29;20079;-63
2022/04/02 13:54:50;;;;;;;15.73;9.82;;;;;;;;;;4954247;29;20114;-62
2022/04/02 13:57:19;;;;;;;15.13;10.50;;;;;;;;;;4951135;29;20031;-62
2022/04/02 13:59:52;;;;;;;13.65;9.80;;;;;;;;;;4954262;28;20031;-62
2022/04/02 14:02:24;;;;;;;17.38;10.90;;;;;;;;;;4949092;29;20069;-62
2022/04/02 14:04:59;;;;;;;16.05;10.65;;;;;;;;;;4953744;29;20019;-62
2022/04/02 14:07:27;;;;;;;15.55;10.15;;;;;;;;;;4954264;29;20483;-62
2022/04/02 14:09:56;;;;;;;14.85;9.45;;;;;;;;;;4948447;28;20027;-63
2022/04/02 14:12:31;;;;;;;15.35;9.65;;;;;;;;;;4954696;29;20498;-62
2022/04/02 14:14:59;;;;;;;14.48;8.65;;;;;;;;;;4950356;29;20020;-62
2022/04/02 14:17:29;;;;;;;10.38;6.85;;;;;;;;;;4947870;29;20102;-62
2022/04/02 14:20:02;;;;;;;13.75;8.82;;;;;;;;;;4952296;29;20029;-63
2022/04/02 14:22:28;;;;;;;;;;;;;;;;;;4943875;29;20086;-61
2022/04/02 14:25:00;;;;;;;15.05;8.80;;;;;;;;;;4949357;29;19915;-62
2022/04/02 14:27:49;;;;;;;14.43;8.35;;;;;;;;;;4946422;29;20027;-62
2022/04/02 14:30:33;;;;;;;9.55;6.53;;;;;;;;;;4892411;29;20063;-61
2022/04/02 14:33:18;;;;;;;9.20;6.25;;;;;;;;;;4883689;29;20061;-62
2022/04/02 14:35:44;;;;;;;8.68;5.80;;;;;;;;;;4891737;29;20501;-61
2022/04/02 14:38:12;;;;;;;9.35;5.43;;;;;;;;;;4893991;29;20032;-62
2022/04/02 14:40:57;;;;;;;9.52;4.93;;;;;;;;;;4889793;29;20140;-61
2022/04/02 14:43:28;;;;;;;7.75;4.82;;;;;;;;;;4884615;29;20040;-62
2022/04/02 14:45:54;;;;;;;6.57;4.28;;;;;;;;;;4893594;29;20582;-62